Terminal Aerodrome Forecast
Issued by NWS Huntsville, AL

Current Version | Previous Version | Text Only | Print | Product List | Glossary On
Versions: 1 2 3 4 5 6 7 8 9 10 11 12 13 14 15 16 17 18 19 20 21 22 23 24 25 26 27 28 29 30 31 32 33 34
865
FTUS44 KHUN 232320
TAFHSV
TAF
KHSV 232320Z 2400/2424 20006KT P6SM SKC
     FM240900 28007KT P6SM SKC
     FM241400 29013G23KT P6SM SCT250=

USA.gov is the U.S. government's official web portal to all federal, state and local government web resources and services.